Aviation Digital Data Service (ADDS)

Output produced by METARs form (1906 UTC 18 June 2019)
found at http://www.aviationweather.gov/metar/data/
 
PHTO 181901Z 11003KT 4SM -RA SCT020 BKN028 OVC070 26/21 A3005 RMK AO2 P0001 T02610211
PHTO 181740Z 1818/1918 24005KT P6SM VCSH SCT020 BKN045 
     FM182000 10008KT P6SM VCSH SCT025 BKN040 
     FM190500 24005KT P6SM VCSH SCT025 BKN040
       
PHNL 181853Z 08010KT 10SM FEW024 FEW045 SCT060 28/19 A3003 RMK AO2 SLP167 T02830194 $
PHNL 181740Z 1818/1924 06006KT P6SM FEW025 SCT040 
     FM182000 07012G18KT P6SM FEW025 SCT045 
     FM190800 06009KT P6SM FEW025 SCT045 
     FM192000 06013G19KT P6SM FEW025 SCT045
       
PHOG 181854Z 07016G27KT 10SM FEW030 SCT055 29/21 A3001 RMK AO2 PK WND 05027/1846 SLP165 T02940206
PHOG 181740Z 1818/1918 10008KT P6SM FEW025 SCT060 
     FM182000 06017G24KT P6SM FEW025 SCT050 
     FM190600 06011KT P6SM FEW050 
     FM191000 06008KT P6SM FEW045 AMD LTD TO VIS AND WIND 1909/1916
       
PHKO 181853Z 17009KT 10SM SCT045 28/21 A2998 RMK AO2 SLP152 T02780211
PHKO 181740Z 1818/1918 11005KT P6SM FEW060 
     FM182000 22010KT P6SM SCT050 
     FM190500 11005KT P6SM FEW035 SCT060
       
PHJR 181740Z 1818/1918 VRB05KT P6SM FEW025 SCT045 
     FM182000 11009KT P6SM FEW025 FEW045 
     FM190500 VRB05KT P6SM FEW045 AMD NOT SKED
       
PHMK 181854Z 04010G17KT 10SM CLR 29/21 A3003 RMK AO2 SLP171 T02890206
PHMK 181740Z 1818/1918 05007KT P6SM FEW025 SCT040 
     FM182000 05014G21KT P6SM FEW025 SCT040 
     FM190600 05008KT P6SM FEW040
       
PHNY 181856Z AUTO 26004KT 10SM 24/22 A3008 RMK AO2 SLP166 T02440222
PHNY 181740Z 1818/1918 08008KT P6SM FEW015 
     FM182000 03013G19KT P6SM SCT015 BKN025 
     FM190600 VRB06KT P6SM SCT025
       
PHLI 181853Z 08017KT 10SM BKN042 28/23 A3005 RMK AO2 SLP173 T02780233
PHLI 181740Z 1818/1918 08015KT P6SM FEW015 SCT030 BKN045 
     FM182000 07012KT P6SM VCSH SCT020 BKN040